createdAt,value
2023-07-03T00:01:16.547Z,100873.48
2023-07-03T00:03:48.053Z,100872.21
2023-07-03T00:06:19.301Z,100879.04
2023-07-03T00:08:50.692Z,100881.30
2023-07-03T00:11:21.789Z,100882.73
2023-07-03T00:13:53.043Z,100876.81
2023-07-03T00:16:24.255Z,100873.45
2023-07-03T00:18:55.313Z,100871.48
2023-07-03T00:21:26.716Z,100869.79
2023-07-03T00:23:58.070Z,100865.40
2023-07-03T00:26:28.961Z,100869.23
2023-07-03T00:29:01.326Z,100863.84
2023-07-03T00:31:32.606Z,100868.45
2023-07-03T00:34:04.009Z,100866.55
2023-07-03T00:36:35.161Z,100866.96
2023-07-03T00:39:07.281Z,100868.54
2023-07-03T00:41:38.559Z,100869.59
2023-07-03T00:44:14.246Z,100870.30
2023-07-03T00:46:47.965Z,100868.37
2023-07-03T00:49:19.802Z,100866.80
2023-07-03T00:51:55.045Z,100867.34
2023-07-03T00:54:26.630Z,100866.39
2023-07-03T00:56:57.902Z,100870.67
2023-07-03T00:59:29.172Z,100871.36
2023-07-03T01:02:09.853Z,100872.89
2023-07-03T01:04:47.580Z,100870.34
2023-07-03T01:07:23.127Z,100869.02
2023-07-03T01:09:58.485Z,100861.75
2023-07-03T01:12:32.427Z,100859.90
2023-07-03T01:15:08.093Z,100858.09
2023-07-03T01:17:42.010Z,100857.64
2023-07-03T01:20:18.326Z,100860.23
2023-07-03T01:23:00.822Z,100860.84
2023-07-03T01:25:33.289Z,100863.48
2023-07-03T01:28:06.430Z,100862.82
2023-07-03T01:30:40.632Z,100861.50
2023-07-03T01:33:16.718Z,100860.68
2023-07-03T01:35:50.920Z,100858.54
2023-07-03T01:38:24.252Z,100857.27
2023-07-03T01:40:57.428Z,100859.00
2023-07-03T01:43:29.256Z,100853.60
2023-07-03T01:46:00.250Z,100852.55
2023-07-03T01:48:34.604Z,100853.41
2023-07-03T01:51:09.026Z,100854.28
2023-07-03T01:53:46.842Z,100854.35
2023-07-03T01:56:25.772Z,100850.05
2023-07-03T01:59:03.879Z,100847.58
2023-07-03T02:01:43.438Z,100850.17
2023-07-03T02:04:25.762Z,100847.13
2023-07-03T02:06:58.953Z,100843.48
2023-07-03T02:09:31.146Z,100842.08
2023-07-03T02:12:02.968Z,100844.42
2023-07-03T02:14:35.883Z,100848.33
2023-07-03T02:17:08.578Z,100847.67
2023-07-03T02:19:40.179Z,100850.91
2023-07-03T02:22:11.714Z,100849.67
2023-07-03T02:24:43.506Z,100850.66
2023-07-03T02:27:15.056Z,100854.52
2023-07-03T02:29:46.399Z,100844.58
2023-07-03T02:32:17.959Z,100844.95
2023-07-03T02:34:49.890Z,100843.19
2023-07-03T02:37:21.774Z,100843.64
2023-07-03T02:39:53.338Z,100844.02
2023-07-03T02:42:24.946Z,100842.95
2023-07-03T02:44:56.477Z,100838.02
2023-07-03T02:47:27.839Z,100838.23
2023-07-03T02:50:00.601Z,100829.70
2023-07-03T02:52:31.789Z,100835.30
2023-07-03T02:55:04.135Z,100833.58
2023-07-03T02:57:35.834Z,100836.70
2023-07-03T03:00:12.843Z,100841.84
2023-07-03T03:02:46.237Z,100846.60
2023-07-03T03:05:18.171Z,100850.21
2023-07-03T03:07:49.311Z,100849.63
2023-07-03T03:10:20.278Z,100852.48
2023-07-03T03:12:52.049Z,100851.86
2023-07-03T03:15:24.002Z,100851.08
2023-07-03T03:17:55.404Z,100850.42
2023-07-03T03:20:27.424Z,100849.94
2023-07-03T03:22:58.724Z,100851.57
2023-07-03T03:25:30.608Z,100850.51
2023-07-03T03:28:01.971Z,100849.40
2023-07-03T03:30:33.997Z,100851.16
2023-07-03T03:33:05.222Z,100849.35
2023-07-03T03:35:36.459Z,100849.56
2023-07-03T03:38:08.299Z,100849.52
2023-07-03T03:40:39.870Z,100853.21
2023-07-03T03:43:11.160Z,100854.70
2023-07-03T03:45:42.531Z,100853.92
2023-07-03T03:48:14.149Z,100851.49
2023-07-03T03:50:45.446Z,100848.73
2023-07-03T03:53:17.115Z,100851.05
2023-07-03T03:55:52.570Z,100851.49
2023-07-03T03:58:24.981Z,100852.40
2023-07-03T04:00:57.700Z,100849.45
2023-07-03T04:03:29.015Z,100847.63
2023-07-03T04:06:00.689Z,100850.06
2023-07-03T04:08:32.277Z,100855.23
2023-07-03T04:11:04.247Z,100857.85
2023-07-03T04:13:35.595Z,100859.30
2023-07-03T04:16:07.877Z,100857.54
2023-07-03T04:18:39.640Z,100855.98
2023-07-03T04:21:10.889Z,100853.67
2023-07-03T04:23:41.951Z,100854.66
2023-07-03T04:26:13.425Z,100856.74
2023-07-03T04:28:45.231Z,100857.48
2023-07-03T04:31:16.571Z,100862.09
2023-07-03T04:33:48.214Z,100860.45
2023-07-03T04:36:24.347Z,100866.63
2023-07-03T04:38:58.718Z,100868.25
2023-07-03T04:41:30.446Z,100868.08
2023-07-03T04:44:02.493Z,100866.30
2023-07-03T04:46:34.490Z,100865.45
2023-07-03T04:49:06.703Z,100866.89
2023-07-03T04:51:38.042Z,100867.02
2023-07-03T04:54:09.306Z,100871.80
2023-07-03T04:56:40.580Z,100874.16
2023-07-03T04:59:11.835Z,100877.98
2023-07-03T05:01:44.099Z,100879.00
2023-07-03T05:04:15.942Z,100877.65
2023-07-03T05:06:48.529Z,100880.92
2023-07-03T05:09:19.693Z,100881.72
2023-07-03T05:11:50.922Z,100880.29
2023-07-03T05:14:22.298Z,100879.67
2023-07-03T05:16:53.431Z,100877.05
2023-07-03T05:19:25.279Z,100873.80
2023-07-03T05:21:56.485Z,100875.15
2023-07-03T05:24:27.784Z,100874.89
2023-07-03T05:26:59.120Z,100875.76
2023-07-03T05:29:30.084Z,100876.95
2023-07-03T05:32:02.418Z,100880.45
2023-07-03T05:34:35.130Z,100883.83
2023-07-03T05:37:06.970Z,100885.00
2023-07-03T05:39:38.913Z,100889.27
2023-07-03T05:42:11.911Z,100891.02
2023-07-03T05:44:42.903Z,100891.58
2023-07-03T05:47:15.481Z,100891.14
2023-07-03T05:49:48.839Z,100894.70
2023-07-03T05:52:20.599Z,100894.52
2023-07-03T05:54:51.680Z,100901.10
2023-07-03T05:57:23.782Z,100901.22
2023-07-03T05:59:55.873Z,100906.14
2023-07-03T06:02:26.944Z,100906.67
2023-07-03T06:04:58.181Z,100909.35
2023-07-03T06:07:29.267Z,100910.04
2023-07-03T06:10:00.239Z,100915.12
2023-07-03T06:12:31.473Z,100911.63
2023-07-03T06:15:03.488Z,100914.38
2023-07-03T06:17:34.753Z,100916.25
2023-07-03T06:20:06.740Z,100915.13
2023-07-03T06:22:37.861Z,100916.94
2023-07-03T06:25:09.881Z,100916.81
2023-07-03T06:27:41.044Z,100922.44
2023-07-03T06:30:13.708Z,100920.79
2023-07-03T06:32:45.077Z,100922.17
2023-07-03T06:35:18.804Z,100924.34
2023-07-03T06:37:49.868Z,100918.80
2023-07-03T06:40:21.119Z,100919.65
2023-07-03T06:42:53.360Z,100921.13
2023-07-03T06:45:25.103Z,100918.40
2023-07-03T06:47:56.350Z,100918.13
2023-07-03T06:50:27.356Z,100916.33
2023-07-03T06:52:58.532Z,100920.00
2023-07-03T06:55:29.570Z,100920.89
2023-07-03T06:58:01.679Z,100921.89
2023-07-03T07:00:33.020Z,100918.70
2023-07-03T07:03:04.623Z,100920.06
2023-07-03T07:05:36.027Z,100922.48
2023-07-03T07:08:08.590Z,100928.38
2023-07-03T07:10:44.805Z,100927.52
2023-07-03T07:13:16.399Z,100925.46
2023-07-03T07:15:47.967Z,100925.59
2023-07-03T07:18:19.482Z,100923.67
2023-07-03T07:20:50.730Z,100929.41
2023-07-03T07:23:22.040Z,100928.22
2023-07-03T07:25:58.842Z,100930.73
2023-07-03T07:28:30.334Z,100931.96
2023-07-03T07:31:01.912Z,100935.12
2023-07-03T07:33:33.769Z,100934.55
2023-07-03T07:36:05.568Z,100937.20
2023-07-03T07:38:36.646Z,100937.67
2023-07-03T07:41:07.887Z,100941.74
2023-07-03T07:43:39.647Z,100940.70
2023-07-03T07:46:11.246Z,100946.50
2023-07-03T07:48:42.779Z,100950.50
2023-07-03T07:51:15.917Z,100949.39
2023-07-03T07:53:47.493Z,100948.05
2023-07-03T07:56:19.164Z,100946.70
2023-07-03T07:58:50.040Z,100949.46
2023-07-03T08:01:21.923Z,100950.78
2023-07-03T08:03:54.343Z,100950.83
2023-07-03T08:06:25.598Z,100948.49
2023-07-03T08:08:56.891Z,100953.77
2023-07-03T08:11:30.316Z,100955.59
2023-07-03T08:14:01.681Z,100959.21
2023-07-03T08:16:32.989Z,100959.19
2023-07-03T08:19:04.751Z,100964.36
2023-07-03T08:21:35.795Z,100967.81
2023-07-03T08:24:09.469Z,100967.52
2023-07-03T08:26:42.921Z,100968.52
2023-07-03T08:29:14.321Z,100970.72
2023-07-03T08:31:45.884Z,100974.41
2023-07-03T08:34:17.381Z,100974.18
2023-07-03T08:39:23.374Z,100977.29
2023-07-03T08:42:01.325Z,100977.86
2023-07-03T08:44:33.082Z,100976.86
2023-07-03T08:47:11.526Z,100979.20
2023-07-03T08:49:47.178Z,100975.41
2023-07-03T08:52:22.286Z,100977.81
2023-07-03T08:54:55.085Z,100980.11
2023-07-03T08:57:28.665Z,100978.76
2023-07-03T08:59:59.718Z,100975.63
2023-07-03T09:02:40.318Z,100975.87
2023-07-03T09:05:25.893Z,100975.96
2023-07-03T09:08:01.828Z,100977.52
2023-07-03T09:10:39.630Z,100976.86
2023-07-03T09:13:17.097Z,100977.45
2023-07-03T09:15:56.456Z,100979.75
2023-07-03T09:18:33.413Z,100983.45
2023-07-03T09:21:04.968Z,100984.60
2023-07-03T09:23:40.926Z,100984.50
2023-07-03T09:26:19.341Z,100983.70
2023-07-03T09:28:52.650Z,100984.52
2023-07-03T09:31:23.872Z,100984.92
2023-07-03T09:33:55.368Z,100984.55
2023-07-03T09:36:32.840Z,100982.27
2023-07-03T09:39:11.652Z,100980.91
2023-07-03T09:41:43.812Z,100982.11
2023-07-03T09:44:18.281Z,100984.04
2023-07-03T09:46:50.521Z,100984.29
2023-07-03T09:49:26.308Z,100988.85
2023-07-03T09:51:58.922Z,100985.46
2023-07-03T09:54:33.022Z,100987.67
2023-07-03T09:57:08.974Z,100989.56
2023-07-03T09:59:40.782Z,100994.45
2023-07-03T10:07:22.394Z,101001.42
2023-07-03T10:12:33.318Z,101006.33
2023-07-03T10:15:07.940Z,101007.78
2023-07-03T10:17:44.642Z,101007.23
2023-07-03T10:20:22.546Z,101012.48
2023-07-03T10:22:56.238Z,101013.89
2023-07-03T10:25:34.932Z,101012.57
2023-07-03T10:28:10.725Z,101020.84
2023-07-03T10:30:43.777Z,101019.52
2023-07-03T10:33:19.832Z,101024.30
2023-07-03T10:35:53.857Z,101027.02
2023-07-03T10:38:33.746Z,101023.24
2023-07-03T10:41:11.187Z,101026.58
2023-07-03T10:43:48.033Z,101025.38
2023-07-03T10:46:26.341Z,101028.05
2023-07-03T10:49:02.555Z,101027.02
2023-07-03T10:51:44.969Z,101023.77
2023-07-03T10:54:22.947Z,101023.44
2023-07-03T10:57:00.025Z,101027.10
2023-07-03T10:59:34.421Z,101025.12
2023-07-03T11:02:31.749Z,101025.79
2023-07-03T11:05:12.238Z,101030.13
2023-07-03T11:07:49.716Z,101026.75
2023-07-03T11:10:32.980Z,101021.27
2023-07-03T11:13:08.804Z,101021.44
2023-07-03T11:15:52.852Z,101018.77
2023-07-03T11:24:18.693Z,101026.85
2023-07-03T11:29:32.609Z,101033.71
2023-07-03T11:32:06.907Z,101032.09
2023-07-03T11:40:37.750Z,101026.53
2023-07-03T11:43:31.350Z,101024.86
2023-07-03T11:46:12.176Z,101022.74
2023-07-03T11:48:50.564Z,101018.73
2023-07-03T11:51:34.827Z,101025.59
2023-07-03T11:54:19.766Z,101021.66
2023-07-03T11:56:56.889Z,101017.55
2023-07-03T11:59:31.484Z,101017.22
2023-07-03T12:02:29.722Z,101017.45
2023-07-03T12:05:01.196Z,101022.64
2023-07-03T12:07:52.263Z,101023.29
2023-07-03T12:10:56.914Z,101019.42
2023-07-03T12:13:47.727Z,101019.33
2023-07-03T12:16:21.441Z,101020.00
2023-07-03T12:19:05.541Z,101023.01
2023-07-03T12:21:53.597Z,101021.27
2023-07-03T12:24:30.777Z,101017.52
2023-07-03T12:27:04.989Z,101016.27
2023-07-03T12:29:38.900Z,101020.09
2023-07-03T12:32:12.119Z,101018.87
2023-07-03T12:34:45.270Z,101020.65
2023-07-03T12:37:22.065Z,101018.32
2023-07-03T12:39:54.441Z,101016.73
2023-07-03T12:42:29.452Z,101020.02
2023-07-03T12:45:18.226Z,101019.57
2023-07-03T12:48:01.830Z,101021.57
2023-07-03T12:50:33.928Z,101020.35
2023-07-03T12:53:06.338Z,101017.08
2023-07-03T12:55:43.263Z,101014.77
2023-07-03T12:58:15.445Z,101018.27
2023-07-03T13:00:47.178Z,101022.60
2023-07-03T13:03:20.064Z,101023.48
2023-07-03T13:05:52.411Z,101019.21
2023-07-03T13:08:24.366Z,101020.69
2023-07-03T13:11:04.242Z,101022.10
2023-07-03T13:13:35.600Z,101021.56
2023-07-03T13:16:17.394Z,101018.45
2023-07-03T13:19:02.541Z,101020.55
2023-07-03T13:21:35.588Z,101024.23
2023-07-03T13:24:13.480Z,101027.20
2023-07-03T13:26:48.074Z,101027.34
2023-07-03T13:29:26.623Z,101030.37
2023-07-03T13:32:15.843Z,101025.71
2023-07-03T13:34:59.517Z,101027.05
2023-07-03T13:37:32.729Z,101025.33
2023-07-03T13:40:03.917Z,101025.20
2023-07-03T13:42:35.464Z,101025.34
2023-07-03T13:45:09.618Z,101027.14
2023-07-03T13:47:40.844Z,101024.86
2023-07-03T13:50:13.607Z,101020.65
2023-07-03T13:52:44.656Z,101018.98
2023-07-03T13:55:15.950Z,101024.10
2023-07-03T13:57:49.610Z,101017.23
2023-07-03T14:00:22.157Z,101013.65
2023-07-03T14:02:54.240Z,101009.30
2023-07-03T14:05:26.150Z,101009.13
2023-07-03T14:07:57.919Z,101002.67
2023-07-03T14:10:29.620Z,101001.97
2023-07-03T14:13:00.770Z,101002.02
2023-07-03T14:15:33.197Z,101003.22
2023-07-03T14:18:04.773Z,101012.13
2023-07-03T14:20:36.318Z,101021.23
2023-07-03T14:23:07.896Z,101029.35
2023-07-03T14:25:40.385Z,101027.46
2023-07-03T14:28:11.780Z,101021.42
2023-07-03T14:30:43.294Z,101017.83
2023-07-03T14:33:15.022Z,101023.50
2023-07-03T14:35:46.878Z,101028.91
2023-07-03T14:38:18.047Z,101036.45
2023-07-03T14:40:49.430Z,101031.16
2023-07-03T14:43:20.832Z,101023.79
2023-07-03T14:45:52.310Z,101011.64
2023-07-03T14:48:24.025Z,101015.04
2023-07-03T14:50:55.187Z,101021.16
2023-07-03T14:53:26.496Z,101016.96
2023-07-03T14:56:01.954Z,101014.09
2023-07-03T14:58:34.997Z,101021.17
2023-07-03T15:01:07.061Z,101021.27
2023-07-03T15:03:38.994Z,101022.63
2023-07-03T15:06:11.414Z,101015.16
2023-07-03T15:08:42.697Z,101003.11
2023-07-03T15:11:18.887Z,101003.23
2023-07-03T15:13:50.022Z,101004.00
2023-07-03T15:16:21.450Z,101011.28
2023-07-03T15:18:52.687Z,101015.02
2023-07-03T15:21:24.011Z,101027.63
2023-07-03T15:23:55.868Z,101036.95
2023-07-03T15:26:27.087Z,101031.61
2023-07-03T15:28:59.156Z,101017.00
2023-07-03T15:31:30.515Z,101007.31
2023-07-03T15:34:01.837Z,101002.37
2023-07-03T15:36:33.603Z,100994.35
2023-07-03T15:39:05.836Z,100974.71
2023-07-03T15:41:37.115Z,100979.07
2023-07-03T15:44:09.729Z,101017.88
2023-07-03T15:46:41.621Z,101037.42
2023-07-03T15:49:13.569Z,101034.90
2023-07-03T15:51:45.377Z,101021.08
2023-07-03T15:54:16.745Z,101014.92
2023-07-03T15:56:49.425Z,101007.56
2023-07-03T15:59:20.636Z,101015.54
2023-07-03T16:01:52.256Z,101026.51
2023-07-03T16:04:23.666Z,101029.87
2023-07-03T16:06:54.660Z,101028.19
2023-07-03T16:09:25.772Z,101029.51
2023-07-03T16:11:56.864Z,101029.80
2023-07-03T16:14:28.611Z,101031.60
2023-07-03T16:17:02.928Z,101029.13
2023-07-03T16:19:34.514Z,101022.80
2023-07-03T16:22:06.925Z,101030.48
2023-07-03T16:24:38.524Z,101025.80
2023-07-03T16:27:09.967Z,101021.48
2023-07-03T16:29:44.310Z,101019.92
2023-07-03T16:32:15.899Z,101015.46
2023-07-03T16:34:48.103Z,101004.91
2023-07-03T16:37:19.456Z,101005.35
2023-07-03T16:39:51.423Z,101004.73
2023-07-03T16:42:23.166Z,100999.67
2023-07-03T16:44:54.574Z,100980.41
2023-07-03T16:47:26.121Z,100954.55
2023-07-03T16:49:57.478Z,100924.18
2023-07-03T16:52:28.964Z,100914.52
2023-07-03T16:55:00.367Z,100926.48
2023-07-03T16:57:31.659Z,100939.88
2023-07-03T17:00:03.380Z,100944.52
2023-07-03T17:02:34.782Z,100943.61
2023-07-03T17:05:07.464Z,100948.07
2023-07-03T17:07:38.775Z,100939.27
2023-07-03T17:10:11.471Z,100924.80
2023-07-03T17:12:42.780Z,100923.61
2023-07-03T17:15:14.952Z,100934.04
2023-07-03T17:17:46.165Z,100938.76
2023-07-03T17:20:17.966Z,100937.94
2023-07-03T17:22:49.088Z,100941.72
2023-07-03T17:25:20.304Z,100950.08
2023-07-03T17:27:51.588Z,100951.73
2023-07-03T17:30:22.708Z,100958.55
2023-07-03T17:32:53.734Z,100959.33
2023-07-03T17:35:24.830Z,100952.02
2023-07-03T17:37:55.917Z,100948.61
2023-07-03T17:40:27.212Z,100953.52
2023-07-03T17:42:58.400Z,100966.27
2023-07-03T17:45:29.420Z,100961.67
2023-07-03T17:48:00.420Z,100961.55
2023-07-03T17:50:31.812Z,100963.16
2023-07-03T17:53:02.942Z,100963.04
2023-07-03T17:55:35.534Z,100963.64
2023-07-03T17:58:06.602Z,100962.50
2023-07-03T18:00:37.637Z,100957.73
2023-07-03T18:03:09.035Z,100956.29
2023-07-03T18:05:40.385Z,100959.48
2023-07-03T18:08:11.685Z,100957.77
2023-07-03T18:10:42.601Z,100959.86
2023-07-03T18:13:13.976Z,100958.30
2023-07-03T18:15:49.623Z,100963.98
2023-07-03T18:18:22.096Z,100967.42
2023-07-03T18:20:53.136Z,100970.17
2023-07-03T18:23:24.289Z,100973.66
2023-07-03T18:25:56.311Z,100979.16
2023-07-03T18:28:27.454Z,100976.14
2023-07-03T18:31:03.383Z,100977.94
2023-07-03T18:33:35.571Z,100977.15
2023-07-03T18:36:07.277Z,100972.39
2023-07-03T18:38:38.768Z,100963.63
2023-07-03T18:41:10.103Z,100964.21
2023-07-03T18:43:41.181Z,100966.87
2023-07-03T18:46:12.587Z,100964.66
2023-07-03T18:48:44.272Z,100962.36
2023-07-03T18:51:19.488Z,100953.08
2023-07-03T18:53:50.860Z,100945.88
2023-07-03T18:56:22.741Z,100939.84
2023-07-03T18:58:54.063Z,100933.10
2023-07-03T19:01:25.479Z,100929.32
2023-07-03T19:03:56.853Z,100936.22
2023-07-03T19:06:28.067Z,100938.16
2023-07-03T19:08:59.417Z,100925.09
2023-07-03T19:11:30.824Z,100911.98
2023-07-03T19:14:02.220Z,100915.52
2023-07-03T19:16:33.868Z,100933.67
2023-07-03T19:19:05.483Z,100952.87
2023-07-03T19:21:37.150Z,100965.45
2023-07-03T19:24:09.016Z,100965.49
2023-07-03T19:26:40.263Z,100970.02
2023-07-03T19:29:11.545Z,100971.46
2023-07-03T19:31:42.882Z,100975.73
2023-07-03T19:34:14.293Z,100980.91
2023-07-03T19:36:45.520Z,100983.24
2023-07-03T19:39:16.567Z,100985.10
2023-07-03T19:41:48.061Z,100985.40
2023-07-03T19:44:19.096Z,100995.45
2023-07-03T19:46:50.005Z,101004.77
2023-07-03T19:49:21.401Z,101009.28
2023-07-03T19:51:52.631Z,101013.17
2023-07-03T19:54:24.437Z,101014.73
2023-07-03T19:56:56.009Z,101012.38
2023-07-03T19:59:29.862Z,101016.70
2023-07-03T20:02:01.295Z,101026.36
2023-07-03T20:04:32.955Z,101030.98
2023-07-03T20:07:05.098Z,101032.29
2023-07-03T20:09:36.136Z,101037.67
2023-07-03T20:12:09.013Z,101043.35
2023-07-03T20:14:40.955Z,101050.48
2023-07-03T20:17:12.541Z,101047.15
2023-07-03T20:19:43.825Z,101045.33
2023-07-03T20:22:15.002Z,101049.33
2023-07-03T20:24:46.408Z,101051.59
2023-07-03T20:27:17.918Z,101051.30
2023-07-03T20:29:53.147Z,101048.34
2023-07-03T20:32:25.264Z,101046.15
2023-07-03T20:34:57.313Z,101054.63
2023-07-03T20:37:28.568Z,101054.75
2023-07-03T20:40:02.343Z,101059.07
2023-07-03T20:42:33.670Z,101057.71
2023-07-03T20:45:05.277Z,101056.47
2023-07-03T20:47:36.587Z,101057.79
2023-07-03T20:50:11.500Z,101062.68
2023-07-03T20:52:42.966Z,101066.58
2023-07-03T20:55:24.094Z,101071.08
2023-07-03T20:57:55.419Z,101074.86
2023-07-03T21:00:27.001Z,101075.39
2023-07-03T21:02:58.304Z,101069.58
2023-07-03T21:05:29.834Z,101068.63
2023-07-03T21:08:00.984Z,101069.83
2023-07-03T21:10:32.139Z,101073.45
2023-07-03T21:13:03.673Z,101068.86
2023-07-03T21:15:36.316Z,101068.81
2023-07-03T21:18:07.683Z,101066.88
2023-07-03T21:20:38.719Z,101062.60
2023-07-03T21:23:09.867Z,101062.69
2023-07-03T21:25:41.101Z,101062.12
2023-07-03T21:28:13.201Z,101060.72
2023-07-03T21:30:46.142Z,101058.79
2023-07-03T21:33:17.932Z,101056.90
2023-07-03T21:35:49.411Z,101050.14
2023-07-03T21:38:21.108Z,101043.34
2023-07-03T21:40:57.769Z,101044.83
2023-07-03T21:43:31.135Z,101051.26
2023-07-03T21:46:07.262Z,101051.50
2023-07-03T21:48:40.271Z,101045.60
2023-07-03T21:51:13.093Z,101047.17
2023-07-03T21:53:44.793Z,101048.05
2023-07-03T21:56:17.625Z,101048.46
2023-07-03T21:58:51.771Z,101049.94
2023-07-03T22:01:26.988Z,101051.59
2023-07-03T22:03:59.313Z,101051.21
2023-07-03T22:06:31.220Z,101048.94
2023-07-03T22:09:02.285Z,101051.30
2023-07-03T22:11:33.877Z,101049.36
2023-07-03T22:14:05.393Z,101048.27
2023-07-03T22:16:37.017Z,101045.73
2023-07-03T22:19:09.012Z,101044.95
2023-07-03T22:21:40.046Z,101044.67
2023-07-03T22:24:11.711Z,101042.23
2023-07-03T22:26:42.939Z,101033.43
2023-07-03T22:29:14.329Z,101023.48
2023-07-03T22:31:45.865Z,101021.34
2023-07-03T22:34:17.157Z,101017.64
2023-07-03T22:36:48.699Z,101018.26
2023-07-03T22:39:19.865Z,101023.50
2023-07-03T22:41:50.814Z,101020.77
2023-07-03T22:44:22.001Z,101020.58
2023-07-03T22:46:54.858Z,101019.55
2023-07-03T22:49:26.033Z,101013.55
2023-07-03T22:51:57.335Z,101012.98
2023-07-03T22:54:28.819Z,101015.16
2023-07-03T22:57:00.019Z,101017.38
2023-07-03T22:59:31.103Z,101014.61
2023-07-03T23:02:02.172Z,101016.55
2023-07-03T23:04:36.353Z,101014.65
2023-07-03T23:07:08.496Z,101011.12
2023-07-03T23:09:41.961Z,101010.67
2023-07-03T23:12:15.198Z,101007.54
2023-07-03T23:14:49.580Z,101007.39
2023-07-03T23:17:28.774Z,101006.80
2023-07-03T23:19:59.914Z,101007.84
2023-07-03T23:22:31.832Z,101003.86
2023-07-03T23:25:03.233Z,101002.08
2023-07-03T23:27:34.963Z,101005.96
2023-07-03T23:30:10.953Z,101004.27
2023-07-03T23:32:41.914Z,101004.52
2023-07-03T23:35:13.643Z,101002.77
2023-07-03T23:37:44.905Z,101006.13
2023-07-03T23:40:16.489Z,101002.09
2023-07-03T23:42:48.186Z,101001.02
2023-07-03T23:45:20.951Z,101000.94
2023-07-03T23:47:53.108Z,101001.73
2023-07-03T23:50:24.485Z,101004.84
2023-07-03T23:52:55.818Z,101002.88
2023-07-03T23:55:27.113Z,101006.25
2023-07-03T23:57:58.572Z,101003.94
